createdAt,value
2017-10-15T07:09:30.034Z,87.5
2017-10-15T07:10:33.050Z,86.7
2017-10-15T07:11:34.446Z,85.7
2017-10-15T07:12:36.624Z,85.1
2017-10-15T07:13:38.056Z,83.9
2017-10-15T07:14:40.140Z,83.1
2017-10-15T07:15:42.257Z,81.6
2017-10-15T07:16:43.695Z,81.0
2017-10-15T07:17:45.549Z,80.4
2017-10-15T07:18:47.629Z,79.1
2017-10-15T07:19:49.861Z,78.2
2017-10-15T07:20:51.771Z,78.1
2017-10-15T07:21:53.807Z,77.8
2017-10-15T07:22:55.833Z,77.2
2017-10-15T07:23:57.269Z,76.8
2017-10-15T07:24:59.200Z,76.1
2017-10-15T07:26:01.355Z,75.3
2017-10-15T07:27:02.849Z,75.2
2017-10-15T07:28:04.282Z,74.9
2017-10-15T07:29:05.718Z,74.6
2017-10-15T07:30:07.563Z,74.8
2017-10-15T07:31:09.721Z,73.6
2017-10-15T07:32:11.680Z,73.6
2017-10-15T07:33:13.509Z,73.6
2017-10-15T07:34:15.299Z,73.8
2017-10-15T07:35:17.077Z,73.4
2017-10-15T07:36:18.980Z,73.3
2017-10-15T07:37:21.159Z,72.3
2017-10-15T07:38:22.774Z,71.7
2017-10-15T07:39:24.230Z,71.6
2017-10-15T07:40:26.070Z,71.2
2017-10-15T07:41:28.012Z,71.4
2017-10-15T07:42:29.517Z,70.8
2017-10-15T07:43:31.302Z,70.9
2017-10-15T07:44:33.326Z,70.6
2017-10-15T07:45:35.270Z,69.8
2017-10-15T07:46:37.157Z,70.0
2017-10-15T07:47:38.890Z,70.3
2017-10-15T07:48:40.385Z,70.2
2017-10-15T07:49:42.343Z,69.6
2017-10-15T07:50:44.064Z,69.6
2017-10-15T07:51:46.363Z,69.0
2017-10-15T07:52:48.508Z,68.7
2017-10-15T07:53:50.722Z,68.7
2017-10-15T07:54:52.946Z,69.0
2017-10-15T07:55:55.244Z,68.8
2017-10-15T07:56:57.479Z,69.2
2017-10-15T07:57:59.634Z,68.5
2017-10-15T07:59:01.675Z,68.2
2017-10-15T08:00:03.802Z,68.0
2017-10-15T08:01:06.124Z,68.2
2017-10-15T08:02:08.058Z,68.0
2017-10-15T08:03:10.096Z,67.5
2017-10-15T08:04:12.252Z,67.6
2017-10-15T08:05:14.216Z,67.2
2017-10-15T08:06:15.810Z,66.8
2017-10-15T08:07:17.938Z,66.7
2017-10-15T08:08:19.971Z,66.7
2017-10-15T08:09:21.452Z,65.7
2017-10-15T08:10:22.989Z,65.3
2017-10-15T08:11:25.082Z,65.6
2017-10-15T08:12:27.969Z,64.6
2017-10-15T08:13:29.993Z,64.0
2017-10-15T08:14:31.956Z,63.3
2017-10-15T08:15:33.771Z,63.2
2017-10-15T08:16:35.534Z,62.9
2017-10-15T08:17:37.640Z,62.8
2017-10-15T08:18:39.590Z,61.9
2017-10-15T08:19:41.057Z,61.2
2017-10-15T08:20:42.539Z,60.8
2017-10-15T08:21:44.013Z,60.8
2017-10-15T08:22:46.220Z,59.8
2017-10-15T08:23:48.406Z,59.5
2017-10-15T08:24:50.016Z,59.5
2017-10-15T08:25:52.303Z,58.7
2017-10-15T08:26:53.910Z,58.1
2017-10-15T08:27:55.335Z,57.5
2017-10-15T08:28:56.727Z,56.6
2017-10-15T08:29:58.479Z,56.9
2017-10-15T08:31:00.477Z,55.8
2017-10-15T08:32:02.660Z,55.9
2017-10-15T08:33:04.639Z,54.6
2017-10-15T08:34:06.289Z,54.9
2017-10-15T08:35:07.880Z,52.5
2017-10-15T08:36:09.826Z,52.4
2017-10-15T08:37:11.899Z,52.8
2017-10-15T08:38:13.953Z,52.1
2017-10-15T08:39:15.534Z,51.6
2017-10-15T08:40:17.686Z,51.2
2017-10-15T08:41:19.518Z,51.0
2017-10-15T08:42:21.607Z,50.2
2017-10-15T08:43:23.617Z,49.5
2017-10-15T08:44:25.298Z,49.7
2017-10-15T08:45:27.066Z,49.5
2017-10-15T08:46:28.596Z,49.7
2017-10-15T08:47:30.236Z,49.6
2017-10-15T08:48:32.863Z,50.1
2017-10-15T08:49:34.400Z,50.7
2017-10-15T08:50:35.935Z,50.2
2017-10-15T08:51:37.443Z,50.9
2017-10-15T08:52:39.515Z,50.5
2017-10-15T08:53:41.341Z,49.8
2017-10-15T08:54:43.017Z,50.6
2017-10-15T08:55:44.797Z,51.1
2017-10-15T08:56:46.944Z,51.6
2017-10-15T08:57:48.816Z,51.4
2017-10-15T08:58:50.438Z,52.1
2017-10-15T08:59:52.226Z,51.6
2017-10-15T09:00:53.784Z,50.6
2017-10-15T09:01:55.368Z,51.2
2017-10-15T09:02:57.222Z,51.4
2017-10-15T09:03:58.782Z,51.2
2017-10-15T09:05:00.770Z,51.4
2017-10-15T09:06:02.225Z,51.3
2017-10-15T09:07:03.837Z,51.1
2017-10-15T09:08:05.714Z,50.5
2017-10-15T09:09:07.222Z,50.5
2017-10-15T09:10:08.880Z,49.7
2017-10-15T09:11:10.739Z,48.8
2017-10-15T09:12:12.596Z,48.1
2017-10-15T09:13:14.283Z,47.7
2017-10-15T09:14:15.990Z,47.4
2017-10-15T09:15:17.728Z,47.4
2017-10-15T09:16:19.691Z,46.6
2017-10-15T09:17:21.741Z,46.3
2017-10-15T09:18:23.918Z,46.1
2017-10-15T09:19:25.489Z,45.3
2017-10-15T09:20:27.429Z,45.5
2017-10-15T09:21:28.975Z,44.6
2017-10-15T09:22:30.482Z,45.9
2017-10-15T09:23:31.998Z,46.1
2017-10-15T09:24:33.618Z,44.5
2017-10-15T09:25:35.239Z,44.8
2017-10-15T09:26:36.715Z,44.8
2017-10-15T09:27:38.148Z,44.3
2017-10-15T09:28:39.790Z,45.5
2017-10-15T09:29:41.304Z,46.1
2017-10-15T09:30:42.804Z,45.1
2017-10-15T09:31:44.256Z,43.5
2017-10-15T09:32:45.786Z,43.2
2017-10-15T09:33:47.666Z,43.4
2017-10-15T09:34:49.456Z,43.3
2017-10-15T09:35:51.496Z,43.1
2017-10-15T09:36:53.402Z,42.4
2017-10-15T09:37:54.988Z,41.8
2017-10-15T09:38:56.700Z,41.9
2017-10-15T09:39:58.250Z,42.5
2017-10-15T09:40:59.693Z,42.0
2017-10-15T09:42:01.133Z,42.1
2017-10-15T09:43:02.724Z,42.0
2017-10-15T09:44:04.756Z,41.9
2017-10-15T09:45:06.916Z,41.5
2017-10-15T09:46:08.408Z,41.3
2017-10-15T09:47:10.282Z,41.0
2017-10-15T09:48:12.236Z,41.2
2017-10-15T09:49:14.344Z,41.0
2017-10-15T09:50:16.306Z,41.0
2017-10-15T09:51:17.855Z,41.3
2017-10-15T09:53:00.786Z,39.3
2017-10-15T09:54:03.937Z,39.5
2017-10-15T09:55:05.379Z,38.5
2017-10-15T09:56:07.527Z,38.2
2017-10-15T09:57:09.382Z,38.2
2017-10-15T09:58:11.008Z,38.4
2017-10-15T09:59:12.582Z,39.3
2017-10-15T10:00:14.109Z,39.2
2017-10-15T10:01:16.039Z,38.8
2017-10-15T10:02:18.197Z,38.8
2017-10-15T10:03:20.321Z,37.8
2017-10-15T10:04:22.054Z,38.3
2017-10-15T10:05:24.009Z,38.1
2017-10-15T10:06:25.521Z,38.9
2017-10-15T10:07:27.073Z,39.3
2017-10-15T10:08:28.618Z,38.9
2017-10-15T10:09:30.453Z,39.0
2017-10-15T10:10:32.036Z,38.3
2017-10-15T10:11:33.534Z,38.8
2017-10-15T10:12:35.208Z,39.0
2017-10-15T10:13:36.883Z,37.2
2017-10-15T10:14:38.718Z,37.2
2017-10-15T10:15:40.356Z,37.3
2017-10-15T10:16:41.792Z,37.6
2017-10-15T10:17:43.777Z,36.8
2017-10-15T10:18:45.338Z,37.5
2017-10-15T10:19:46.830Z,37.5
2017-10-15T10:20:48.389Z,36.7
2017-10-15T10:21:49.942Z,37.5
2017-10-15T10:22:51.386Z,35.7
2017-10-15T10:23:52.920Z,35.7
2017-10-15T10:24:55.098Z,35.5
2017-10-15T10:25:56.596Z,35.4
2017-10-15T10:26:58.103Z,34.9
2017-10-15T10:27:59.667Z,34.8
2017-10-15T10:29:01.217Z,35.5
2017-10-15T10:30:03.458Z,34.6
2017-10-15T10:31:05.627Z,35.8
2017-10-15T10:32:07.141Z,35.4
2017-10-15T10:33:09.427Z,33.9
2017-10-15T10:34:10.984Z,36.9
2017-10-15T10:35:12.481Z,34.8
2017-10-15T10:36:13.978Z,33.9
2017-10-15T10:37:15.854Z,32.6
2017-10-15T10:38:17.373Z,34.2
2017-10-15T10:39:19.241Z,34.9
2017-10-15T10:40:21.303Z,33.5
2017-10-15T10:41:23.174Z,33.5
2017-10-15T10:42:24.898Z,32.5
2017-10-15T10:43:27.028Z,32.4
2017-10-15T10:44:29.189Z,31.9
2017-10-15T10:46:12.185Z,32.1
2017-10-15T10:47:17.086Z,31.9
2017-10-15T10:48:18.571Z,32.8
2017-10-15T10:49:20.003Z,31.4
2017-10-15T10:50:21.620Z,31.6
2017-10-15T10:51:23.303Z,31.4
2017-10-15T10:52:25.066Z,31.8
2017-10-15T10:53:26.588Z,31.5
2017-10-15T10:54:28.556Z,31.2
2017-10-15T10:55:30.817Z,31.0
2017-10-15T10:56:32.502Z,29.0
2017-10-15T10:57:34.665Z,28.9
2017-10-15T10:58:36.474Z,29.1
2017-10-15T10:59:38.118Z,29.2
2017-10-15T11:00:39.544Z,31.7
2017-10-15T11:01:41.042Z,30.7
2017-10-15T11:02:42.497Z,31.1
2017-10-15T11:03:44.055Z,30.9
2017-10-15T11:04:45.966Z,30.9
2017-10-15T11:05:47.641Z,30.5
2017-10-15T11:06:49.118Z,29.1
2017-10-15T11:07:50.962Z,30.2
2017-10-15T11:08:52.492Z,30.5
2017-10-15T11:09:54.254Z,31.0
2017-10-15T11:10:56.092Z,30.4
2017-10-15T11:11:57.562Z,29.5
2017-10-15T11:12:59.016Z,29.2
2017-10-15T11:14:00.601Z,29.3
2017-10-15T11:15:02.181Z,29.2
2017-10-15T11:16:04.348Z,28.3
2017-10-15T11:17:06.087Z,28.3
2017-10-15T11:18:08.137Z,27.9
2017-10-15T11:19:10.377Z,28.8
2017-10-15T11:20:11.841Z,29.4
2017-10-15T11:21:13.375Z,28.3
2017-10-15T11:22:14.886Z,28.7
2017-10-15T11:23:16.995Z,28.7
2017-10-15T11:24:18.523Z,29.4
2017-10-15T11:25:20.002Z,29.3
2017-10-15T11:26:21.607Z,30.2
2017-10-15T11:27:23.061Z,28.6
2017-10-15T11:28:24.511Z,29.2
2017-10-15T11:29:25.985Z,27.3
2017-10-15T11:30:27.518Z,28.1
2017-10-15T11:31:29.351Z,27.4
2017-10-15T11:32:30.926Z,27.5
2017-10-15T11:33:32.428Z,27.3
2017-10-15T11:34:33.944Z,26.3
2017-10-15T11:35:35.501Z,28.3
2017-10-15T11:36:37.419Z,26.5
2017-10-15T11:37:38.873Z,25.7
2017-10-15T11:38:40.375Z,27.0
2017-10-15T11:39:41.821Z,26.9
2017-10-15T11:40:43.298Z,26.4
2017-10-15T11:41:44.739Z,26.4
2017-10-15T11:42:46.219Z,26.6
2017-10-15T11:43:48.403Z,26.0
2017-10-15T11:44:50.260Z,26.9
2017-10-15T11:45:51.799Z,28.0
2017-10-15T11:46:53.241Z,27.3
2017-10-15T11:47:55.341Z,25.7
2017-10-15T11:48:57.436Z,24.5
2017-10-15T11:49:58.951Z,27.2
2017-10-15T11:51:00.643Z,27.8
2017-10-15T11:52:02.318Z,25.7
2017-10-15T11:53:03.810Z,25.6
2017-10-15T11:54:05.437Z,24.9
2017-10-15T11:55:07.618Z,25.9
2017-10-15T11:56:09.105Z,26.1
2017-10-15T11:57:10.587Z,26.8
2017-10-15T11:58:12.398Z,26.0
2017-10-15T11:59:14.076Z,25.6
2017-10-15T12:00:15.558Z,26.1
2017-10-15T12:01:17.732Z,26.5
2017-10-15T12:02:19.285Z,26.5
2017-10-15T12:03:20.796Z,26.5
2017-10-15T12:04:22.599Z,26.4
2017-10-15T12:05:24.048Z,26.7
2017-10-15T12:06:25.983Z,26.3
2017-10-15T12:07:28.285Z,26.8
2017-10-15T12:08:29.752Z,26.2
2017-10-15T12:09:31.187Z,25.3
2017-10-15T12:10:32.612Z,25.7
2017-10-15T12:11:34.812Z,25.9
2017-10-15T12:12:36.386Z,25.6
2017-10-15T12:13:38.023Z,25.2
2017-10-15T12:14:39.492Z,24.5
2017-10-15T12:15:41.775Z,26.0
2017-10-15T12:16:43.824Z,26.4
2017-10-15T12:17:45.310Z,26.1
2017-10-15T12:18:47.456Z,25.0
2017-10-15T12:19:49.534Z,26.5
2017-10-15T12:20:51.478Z,25.3
2017-10-15T12:21:53.213Z,25.1
2017-10-15T12:22:54.595Z,25.5
2017-10-15T12:23:56.003Z,26.2
2017-10-15T12:24:57.400Z,26.1
2017-10-15T12:25:58.800Z,25.2
2017-10-15T12:27:00.218Z,25.1
2017-10-15T12:28:02.174Z,23.9
2017-10-15T12:29:03.567Z,25.2
2017-10-15T12:30:04.968Z,25.0
2017-10-15T12:31:06.393Z,24.1
2017-10-15T12:32:07.789Z,23.0
2017-10-15T12:33:09.193Z,23.2
2017-10-15T12:34:10.639Z,23.9
2017-10-15T12:35:12.060Z,22.7
2017-10-15T12:36:13.468Z,22.5
2017-10-15T12:37:14.880Z,24.0
2017-10-15T12:38:16.311Z,23.0
2017-10-15T12:39:17.710Z,23.8
2017-10-15T12:40:19.126Z,22.8
2017-10-15T12:41:20.600Z,24.0
2017-10-15T12:42:22.005Z,22.7
2017-10-15T12:43:23.411Z,23.4
2017-10-15T12:44:24.811Z,23.0
2017-10-15T12:45:26.233Z,21.8
2017-10-15T12:46:27.625Z,22.2
2017-10-15T12:47:29.024Z,21.5
2017-10-15T12:48:30.422Z,22.8
2017-10-15T12:49:31.821Z,22.7
2017-10-15T12:50:33.282Z,23.6
2017-10-15T12:51:34.678Z,21.3
2017-10-15T12:52:36.076Z,20.5
2017-10-15T12:53:37.473Z,21.4
2017-10-15T12:54:38.869Z,21.7
2017-10-15T12:55:40.273Z,21.1
2017-10-15T12:56:41.667Z,21.4
2017-10-15T12:57:43.062Z,21.6
2017-10-15T12:58:44.458Z,21.5
2017-10-15T12:59:45.856Z,20.9
2017-10-15T13:00:47.255Z,21.1
2017-10-15T13:01:48.652Z,20.8
2017-10-15T13:02:50.058Z,21.6
2017-10-15T13:03:51.465Z,20.9
2017-10-15T13:04:52.849Z,22.1
2017-10-15T13:05:54.251Z,21.6
2017-10-15T13:06:55.678Z,20.6
2017-10-15T13:07:57.068Z,20.8
2017-10-15T13:08:58.463Z,20.2
2017-10-15T13:09:59.861Z,21.1
2017-10-15T13:11:01.257Z,21.2
2017-10-15T13:12:02.653Z,21.1
2017-10-15T13:13:04.051Z,20.9
2017-10-15T13:14:05.606Z,20.8
2017-10-15T13:15:07.064Z,21.5
2017-10-15T13:16:08.542Z,21.1
2017-10-15T13:17:09.940Z,21.2
2017-10-15T13:18:11.356Z,22.5
2017-10-15T13:19:12.753Z,22.7
2017-10-15T13:20:14.154Z,22.3
2017-10-15T13:21:15.558Z,22.6
2017-10-15T13:22:16.969Z,22.4
2017-10-15T13:23:18.364Z,22.2
2017-10-15T13:24:19.764Z,21.5
2017-10-15T13:25:21.153Z,22.3
2017-10-15T13:26:22.556Z,22.7
2017-10-15T13:27:23.961Z,22.3
2017-10-15T13:28:25.373Z,22.7
2017-10-15T13:29:26.767Z,23.0
2017-10-15T13:30:28.164Z,22.2
2017-10-15T13:31:29.567Z,21.4
2017-10-15T13:32:30.985Z,21.0
2017-10-15T13:33:32.382Z,20.3
2017-10-15T13:34:33.776Z,20.8
2017-10-15T13:35:35.200Z,22.1
2017-10-15T13:36:36.578Z,21.8
2017-10-15T13:37:37.997Z,20.3
2017-10-15T13:38:39.384Z,20.4
2017-10-15T13:39:40.795Z,21.6
2017-10-15T13:40:42.200Z,20.1
2017-10-15T13:41:43.589Z,21.3
2017-10-15T13:42:44.992Z,20.2
2017-10-15T13:43:46.399Z,21.5
2017-10-15T13:44:47.798Z,22.1
2017-10-15T13:45:49.195Z,21.7
2017-10-15T13:46:50.607Z,22.4
2017-10-15T13:47:52.003Z,21.7
2017-10-15T13:48:53.400Z,22.0
2017-10-15T13:49:54.794Z,22.5
2017-10-15T13:50:56.207Z,22.3
2017-10-15T13:51:57.617Z,22.2
2017-10-15T13:52:59.011Z,21.3
2017-10-15T13:54:00.433Z,22.3
2017-10-15T13:55:01.827Z,21.5
2017-10-15T13:56:03.234Z,21.4
2017-10-15T13:57:04.628Z,22.4
2017-10-15T13:58:06.033Z,22.7
2017-10-15T13:59:07.431Z,22.2
2017-10-15T14:00:08.823Z,22.6
2017-10-15T14:01:10.220Z,23.1
2017-10-15T14:02:11.611Z,22.4
2017-10-15T14:03:13.009Z,22.7
2017-10-15T14:04:14.403Z,21.4
2017-10-15T14:05:15.796Z,21.4
2017-10-15T14:06:17.207Z,22.6
2017-10-15T14:07:18.605Z,23.1
2017-10-15T14:08:20.009Z,23.8
2017-10-15T14:09:21.404Z,24.1
2017-10-15T14:10:22.821Z,22.2
2017-10-15T14:11:24.218Z,22.6
2017-10-15T14:12:25.614Z,23.7
2017-10-15T14:13:27.015Z,24.6
2017-10-15T14:14:28.409Z,23.8
2017-10-15T14:15:29.807Z,23.8
2017-10-15T14:16:31.203Z,23.8
2017-10-15T14:17:32.599Z,25.0
2017-10-15T14:18:33.992Z,25.0
2017-10-15T14:19:35.393Z,24.3
2017-10-15T14:20:36.781Z,24.5
2017-10-15T14:21:38.180Z,24.7
2017-10-15T14:22:39.568Z,23.7
2017-10-15T14:23:41.000Z,25.0
2017-10-15T14:24:42.394Z,24.9
2017-10-15T14:25:43.787Z,26.3
2017-10-15T14:26:45.180Z,26.2
2017-10-15T14:27:46.587Z,26.2
2017-10-15T14:28:47.987Z,26.5
2017-10-15T14:29:49.371Z,26.6
2017-10-15T14:30:50.800Z,26.3
2017-10-15T14:31:52.180Z,26.0
2017-10-15T14:32:53.569Z,26.2
2017-10-15T14:33:54.963Z,26.2
2017-10-15T14:34:56.366Z,27.0
2017-10-15T14:35:57.770Z,26.1
2017-10-15T14:36:59.149Z,26.3
2017-10-15T14:38:00.551Z,27.0
2017-10-15T14:39:01.942Z,26.7
2017-10-15T14:40:03.334Z,27.0
2017-10-15T14:41:04.727Z,26.2
2017-10-15T14:42:06.118Z,26.3
2017-10-15T14:43:07.512Z,27.8
2017-10-15T14:44:08.912Z,28.0
2017-10-15T14:45:10.302Z,28.1
2017-10-15T14:46:11.696Z,27.4
2017-10-15T14:47:13.082Z,28.1
2017-10-15T14:48:14.477Z,28.5
2017-10-15T14:49:15.889Z,29.3
2017-10-15T14:50:17.279Z,29.5
2017-10-15T14:51:18.670Z,30.0
2017-10-15T14:52:20.060Z,30.3
2017-10-15T14:53:21.454Z,31.4
2017-10-15T14:54:22.846Z,31.4
2017-10-15T14:55:24.238Z,32.6
2017-10-15T14:56:25.634Z,33.7
2017-10-15T14:57:27.028Z,34.5
2017-10-15T14:58:28.415Z,35.3
2017-10-15T14:59:29.813Z,34.8
2017-10-15T15:00:31.206Z,34.4
2017-10-15T15:01:32.582Z,35.0
2017-10-15T15:02:33.971Z,35.5
2017-10-15T15:03:35.363Z,38.0
2017-10-15T15:04:36.749Z,38.3
2017-10-15T15:05:38.139Z,38.0
2017-10-15T15:06:39.531Z,37.4
2017-10-15T15:07:40.928Z,37.7
2017-10-15T15:08:42.314Z,39.5
2017-10-15T15:09:43.700Z,40.4
2017-10-15T15:10:45.089Z,40.9
2017-10-15T15:11:46.484Z,40.3
2017-10-15T15:12:47.885Z,39.5
2017-10-15T15:13:49.254Z,39.0
2017-10-15T15:14:50.639Z,39.0
2017-10-15T15:15:52.028Z,40.6
2017-10-15T15:16:53.421Z,40.3
2017-10-15T15:17:54.799Z,41.8
2017-10-15T15:18:56.210Z,42.5
2017-10-15T15:19:57.592Z,43.0
2017-10-15T15:20:59.211Z,43.2
2017-10-15T15:22:00.603Z,40.1
2017-10-15T15:23:01.986Z,42.9
2017-10-15T15:24:03.376Z,43.4
2017-10-15T15:25:04.765Z,43.1
2017-10-15T15:26:06.157Z,42.9
2017-10-15T15:27:07.537Z,41.8
2017-10-15T15:28:08.936Z,43.1
2017-10-15T15:29:10.329Z,43.8
2017-10-15T15:30:11.729Z,44.2
2017-10-15T15:31:13.115Z,44.6
2017-10-15T15:32:14.511Z,45.0
2017-10-15T15:33:15.903Z,46.2
2017-10-15T15:34:17.295Z,48.2
2017-10-15T15:35:18.682Z,48.2
2017-10-15T15:36:20.480Z,47.4
2017-10-15T15:37:21.920Z,47.1
2017-10-15T15:38:23.305Z,48.4
2017-10-15T15:39:24.944Z,49.3
2017-10-15T15:40:26.855Z,50.8
2017-10-15T15:41:29.665Z,50.8
2017-10-15T15:42:31.393Z,51.5
2017-10-15T15:43:33.421Z,51.5
2017-10-15T15:44:36.284Z,52.8
2017-10-15T15:45:40.151Z,51.3
2017-10-15T15:46:41.801Z,51.3
2017-10-15T15:47:43.224Z,51.3
2017-10-15T15:48:44.598Z,51.2
2017-10-15T15:49:46.336Z,51.4
2017-10-15T15:50:47.808Z,51.0
2017-10-15T15:51:49.337Z,50.7
2017-10-15T15:52:51.314Z,54.4
2017-10-15T15:53:53.151Z,55.1
2017-10-15T15:54:54.525Z,53.4
2017-10-15T15:55:56.274Z,52.6
2017-10-15T15:56:57.682Z,54.2
2017-10-15T15:57:59.069Z,53.5
2017-10-15T15:59:00.474Z,53.9
2017-10-15T16:00:01.877Z,53.5
2017-10-15T16:01:03.263Z,54.3
2017-10-15T16:02:04.922Z,54.9
2017-10-15T16:03:06.313Z,54.3
2017-10-15T16:04:07.685Z,54.2
2017-10-15T16:05:09.090Z,53.5
2017-10-15T16:06:10.921Z,54.6
2017-10-15T16:07:12.624Z,54.7
2017-10-15T16:08:14.310Z,54.8
2017-10-15T16:09:16.050Z,54.9
2017-10-15T16:10:17.650Z,55.9
2017-10-15T16:11:19.407Z,57.4
2017-10-15T16:12:21.507Z,56.4
2017-10-15T16:13:22.734Z,56.2
2017-10-15T16:14:24.134Z,56.5
2017-10-15T16:15:26.000Z,56.8
2017-10-15T16:16:27.449Z,57.0
2017-10-15T16:17:28.856Z,57.6
2017-10-15T16:18:30.234Z,56.5
2017-10-15T16:19:31.701Z,59.0
2017-10-15T16:20:33.095Z,58.6
2017-10-15T16:21:34.524Z,59.8
2017-10-15T16:22:35.949Z,60.8
2017-10-15T16:23:37.325Z,61.2
2017-10-15T16:24:38.819Z,61.0
2017-10-15T16:25:40.232Z,62.2
2017-10-15T16:26:41.731Z,62.2
2017-10-15T16:27:43.266Z,63.5
2017-10-15T16:28:44.722Z,62.5
2017-10-15T16:29:46.179Z,62.9
2017-10-15T16:30:47.577Z,60.4
2017-10-15T16:31:48.976Z,60.3
2017-10-15T16:32:50.367Z,61.1
2017-10-15T16:33:51.764Z,61.4
2017-10-15T16:34:53.242Z,59.4
2017-10-15T16:35:54.850Z,60.5
2017-10-15T16:36:56.352Z,60.9
2017-10-15T16:37:57.768Z,60.7
2017-10-15T16:38:59.147Z,59.8
2017-10-15T16:40:00.529Z,59.9
2017-10-15T16:41:01.927Z,61.6
2017-10-15T16:42:03.340Z,61.5
2017-10-15T16:43:04.741Z,61.2
2017-10-15T16:44:06.204Z,62.4
2017-10-15T16:45:07.585Z,62.5
2017-10-15T16:46:09.021Z,62.0
2017-10-15T16:47:10.388Z,61.4
2017-10-15T16:48:11.825Z,61.3
2017-10-15T16:49:13.221Z,60.9
2017-10-15T16:50:14.632Z,62.2
2017-10-15T16:51:16.104Z,62.0
2017-10-15T16:52:17.483Z,61.8
2017-10-15T16:53:18.868Z,61.5
2017-10-15T16:54:20.295Z,61.8
2017-10-15T16:55:22.297Z,61.6
2017-10-15T16:56:23.679Z,61.8
2017-10-15T16:57:25.067Z,61.5
2017-10-15T16:58:26.533Z,62.2
2017-10-15T16:59:27.927Z,62.5
2017-10-15T17:00:29.300Z,63.0
2017-10-15T17:01:30.675Z,63.9
2017-10-15T17:02:32.109Z,63.8
2017-10-15T17:03:33.502Z,64.1
2017-10-15T17:04:34.890Z,64.1
2017-10-15T17:05:36.283Z,64.5
2017-10-15T17:06:37.658Z,64.6
2017-10-15T17:07:39.073Z,65.4
2017-10-15T17:08:40.449Z,64.8
2017-10-15T17:09:41.882Z,64.4
2017-10-15T17:10:43.256Z,64.7
2017-10-15T17:11:44.632Z,65.0
2017-10-15T17:12:46.032Z,64.9
2017-10-15T17:13:47.410Z,64.4
2017-10-15T17:14:48.787Z,64.1
2017-10-15T17:15:50.172Z,64.2
2017-10-15T17:16:51.585Z,64.6
2017-10-15T17:17:52.961Z,64.8
2017-10-15T17:18:54.433Z,64.9
2017-10-15T17:19:55.810Z,64.8
2017-10-15T17:20:57.217Z,65.4
2017-10-15T17:21:58.593Z,65.2
2017-10-15T17:22:59.990Z,64.5
2017-10-15T17:24:01.502Z,64.7
2017-10-15T17:25:02.883Z,64.6
2017-10-15T17:26:04.256Z,64.8
2017-10-15T17:27:05.646Z,65.3
2017-10-15T17:28:07.055Z,65.4
2017-10-15T17:29:08.435Z,65.1
2017-10-15T17:30:09.808Z,64.8
2017-10-15T17:31:11.311Z,65.4
2017-10-15T17:32:12.705Z,64.9
2017-10-15T17:33:14.099Z,65.4
2017-10-15T17:34:15.474Z,65.3
2017-10-15T17:35:16.955Z,65.6
2017-10-15T17:36:18.354Z,65.4
2017-10-15T17:37:19.820Z,66.1
2017-10-15T17:38:21.189Z,66.3
2017-10-15T17:39:22.581Z,66.7
2017-10-15T17:40:23.959Z,66.5
2017-10-15T17:41:25.368Z,66.4
2017-10-15T17:42:26.800Z,66.6
2017-10-15T17:43:28.188Z,66.4
2017-10-15T17:44:29.591Z,66.6
2017-10-15T17:45:31.042Z,66.4
2017-10-15T17:46:32.371Z,66.5
2017-10-15T17:47:33.745Z,66.2
2017-10-15T17:48:35.138Z,66.5
2017-10-15T17:49:36.556Z,65.8
2017-10-15T17:50:37.949Z,65.7
2017-10-15T17:51:39.333Z,65.5
2017-10-15T17:52:40.727Z,65.4
2017-10-15T17:53:42.114Z,65.2
2017-10-15T17:54:43.495Z,65.2
2017-10-15T17:55:44.875Z,65.1
2017-10-15T17:56:46.315Z,65.8
2017-10-15T17:57:47.672Z,65.5
2017-10-15T17:58:49.048Z,66.2
2017-10-15T17:59:50.442Z,66.7
2017-10-15T18:00:51.933Z,66.6
2017-10-15T18:01:53.313Z,66.8
2017-10-15T18:02:54.693Z,66.8
2017-10-15T18:03:56.089Z,67.2
2017-10-15T18:04:57.474Z,67.3
2017-10-15T18:05:58.855Z,67.4
2017-10-15T18:07:00.272Z,66.7
2017-10-15T18:08:01.780Z,67.1
2017-10-15T18:09:03.547Z,67.3
2017-10-15T18:10:05.478Z,67.4
2017-10-15T18:11:06.962Z,67.3
2017-10-15T18:12:08.389Z,67.2
2017-10-15T18:13:09.790Z,67.1
2017-10-15T18:14:11.186Z,67.4
2017-10-15T18:15:12.569Z,67.3
2017-10-15T18:16:13.975Z,67.4
2017-10-15T18:17:15.357Z,67.3
2017-10-15T18:18:16.849Z,67.9
2017-10-15T18:19:18.280Z,67.9
2017-10-15T18:20:19.724Z,67.5
2017-10-15T18:21:21.195Z,67.5
2017-10-15T18:22:22.619Z,67.4
2017-10-15T18:23:24.064Z,67.5
2017-10-15T18:24:25.495Z,67.6
2017-10-15T18:25:27.521Z,67.6
2017-10-15T18:26:29.233Z,67.6
2017-10-15T18:27:31.164Z,67.7
2017-10-15T18:28:32.764Z,67.4
2017-10-15T18:29:34.498Z,67.7
2017-10-15T18:30:36.424Z,68.0
2017-10-15T18:31:38.379Z,68.1
2017-10-15T18:32:40.110Z,68.0
2017-10-15T18:33:42.034Z,68.0
2017-10-15T18:34:43.419Z,68.0
2017-10-15T18:36:25.865Z,67.7
2017-10-15T18:37:27.317Z,67.8
2017-10-15T18:38:28.690Z,68.2
2017-10-15T18:39:30.064Z,67.9
2017-10-15T18:40:31.435Z,67.8
2017-10-15T18:41:32.829Z,67.8
2017-10-15T18:42:34.302Z,67.9
2017-10-15T18:43:36.245Z,68.1
2017-10-15T18:44:37.931Z,67.7
2017-10-15T18:45:39.700Z,68.8
2017-10-15T18:46:41.097Z,68.4
2017-10-15T18:47:42.553Z,69.2
2017-10-15T18:48:43.941Z,69.0
2017-10-15T18:49:45.567Z,68.9
2017-10-15T18:50:47.021Z,68.7
2017-10-15T18:51:48.406Z,69.0
2017-10-15T18:52:49.779Z,69.0
2017-10-15T18:53:51.292Z,68.8
2017-10-15T18:54:52.961Z,68.7
2017-10-15T18:55:54.851Z,68.9
2017-10-15T18:56:56.626Z,69.2
2017-10-15T18:57:58.152Z,69.0
2017-10-15T18:58:59.535Z,69.2
2017-10-15T19:00:01.018Z,69.1
2017-10-15T19:01:02.402Z,69.2
2017-10-15T19:02:03.780Z,69.6
2017-10-15T19:03:05.253Z,69.5
2017-10-15T19:04:06.669Z,69.4
2017-10-15T19:05:08.041Z,69.3
2017-10-15T19:06:09.460Z,69.3
2017-10-15T19:07:11.227Z,69.3
2017-10-15T19:08:12.632Z,69.7
2017-10-15T19:09:14.012Z,69.8
2017-10-15T19:10:15.836Z,69.8
2017-10-15T19:11:17.317Z,70.1
2017-10-15T19:12:18.733Z,70.3
2017-10-15T19:13:20.120Z,70.2
2017-10-15T19:14:21.601Z,70.8
2017-10-15T19:15:22.992Z,70.4
2017-10-15T19:16:24.374Z,70.9
2017-10-15T19:17:25.756Z,70.7
2017-10-15T19:18:27.220Z,70.5
2017-10-15T19:19:28.635Z,71.0
2017-10-15T19:20:29.996Z,70.7
2017-10-15T19:21:31.611Z,70.8
2017-10-15T19:22:33.310Z,70.5
2017-10-15T19:23:35.217Z,71.1
2017-10-15T19:24:36.962Z,71.3
2017-10-15T19:25:38.778Z,71.2
2017-10-15T19:26:40.216Z,71.2
2017-10-15T19:27:41.657Z,71.6
2017-10-15T19:28:43.053Z,71.1
2017-10-15T19:29:44.487Z,71.6
2017-10-15T19:30:45.879Z,71.6
2017-10-15T19:31:47.652Z,71.9
2017-10-15T19:32:49.330Z,71.2
2017-10-15T19:33:51.098Z,71.0
2017-10-15T19:34:52.898Z,71.9
2017-10-15T19:35:54.594Z,71.6
2017-10-15T19:36:56.383Z,71.6
2017-10-15T19:37:58.177Z,72.3
2017-10-15T19:38:59.584Z,71.7
2017-10-15T19:40:42.312Z,71.6
2017-10-15T19:41:43.615Z,71.7
2017-10-15T19:42:44.986Z,71.7
2017-10-15T19:43:46.378Z,71.8
2017-10-15T19:44:47.775Z,71.8
2017-10-15T19:45:49.313Z,72.2
2017-10-15T19:46:51.074Z,72.8
2017-10-15T19:47:52.550Z,72.5
2017-10-15T19:48:54.807Z,72.6
2017-10-15T19:49:56.530Z,72.9
2017-10-15T19:50:57.921Z,72.2
2017-10-15T19:51:59.322Z,72.6
2017-10-15T19:53:00.740Z,72.4
2017-10-15T19:54:02.205Z,72.6
2017-10-15T19:55:03.627Z,72.6
2017-10-15T19:56:46.002Z,72.9
2017-10-15T19:57:47.380Z,73.3
2017-10-15T19:58:48.754Z,73.1
2017-10-15T19:59:50.132Z,73.0
2017-10-15T20:00:52.044Z,72.9
2017-10-15T20:01:53.540Z,72.8
2017-10-15T20:02:54.905Z,72.6
2017-10-15T20:04:36.269Z,72.8
2017-10-15T20:05:37.649Z,72.4
2017-10-15T20:06:39.017Z,73.0
2017-10-15T20:07:40.849Z,72.2
2017-10-15T20:08:42.642Z,72.8
2017-10-15T20:09:44.056Z,72.9
2017-10-15T20:10:45.469Z,72.8
2017-10-15T20:11:46.890Z,71.9
2017-10-15T20:12:48.327Z,72.2
2017-10-15T20:13:49.745Z,72.7
2017-10-15T20:14:51.126Z,72.5
2017-10-15T20:15:52.526Z,72.6
2017-10-15T20:16:54.600Z,72.8
2017-10-15T20:17:56.009Z,72.5
2017-10-15T20:18:57.419Z,72.7
2017-10-15T20:19:58.830Z,72.3
2017-10-15T20:21:41.200Z,72.6
2017-10-15T20:22:42.571Z,72.4
2017-10-15T20:23:43.939Z,72.7
2017-10-15T20:24:45.471Z,72.7
2017-10-15T20:25:46.856Z,72.3
2017-10-15T20:26:48.231Z,72.8
2017-10-15T20:27:49.603Z,72.6
2017-10-15T20:28:50.984Z,72.2
2017-10-15T20:30:33.520Z,72.6
2017-10-15T20:31:34.881Z,72.8
2017-10-15T20:32:36.259Z,72.7
2017-10-15T20:33:37.635Z,72.3
2017-10-15T20:34:39.435Z,72.9
2017-10-15T20:35:40.978Z,72.6
2017-10-15T20:36:42.647Z,72.7
2017-10-15T20:37:44.066Z,71.7
2017-10-15T20:38:45.442Z,72.2
2017-10-15T20:40:27.816Z,71.9
2017-10-15T20:41:29.754Z,71.8
2017-10-15T20:42:31.090Z,71.6
2017-10-15T20:43:32.466Z,71.4
2017-10-15T20:44:34.320Z,71.7
2017-10-15T20:45:35.986Z,71.5
2017-10-15T20:46:38.089Z,72.0
2017-10-15T20:47:39.963Z,72.3
2017-10-15T20:48:41.406Z,71.7
2017-10-15T20:49:42.872Z,71.6
2017-10-15T20:50:44.229Z,71.9
2017-10-15T20:51:45.647Z,71.9
2017-10-15T20:52:47.035Z,71.6
2017-10-15T20:53:48.544Z,71.8
2017-10-15T20:54:49.978Z,72.5